Cucamonga, California
Current Conditions -  °F | °C
As of 1:53 PM on Sunday 21 Dec 2014 (Local Time) from KONT Reporting Station
Broken Clouds Broken Clouds  
Wind Chill: 64°   Ceiling: 24000
Heat Index: 64°   Visibility: 7mi
Dew Point: 48°   Wind: 0mph
Humidity: 56%   Direction: NA
Pressure: 30.05"   Gusts: NA
Location:  34.1001°N, 117.582°W
Report Text: KONT 212153Z 00000KT 7SM BKN240 18/09 A3005 RMK AO2 SLP173 T01780089
Loading
Personal Weather Stations






























Interactive Weather Map New forecast layout! Learn more

10-Day Weather Forecast

Advertisements
Track Severe Weather on mobile